Time;durP1;ratioP1;P1;durP2;ratioP2;P2;SDS_P1;SDS_P2;PMS_P1;PMS_P2;Temp;Humidity;BMP_temperature;BMP_pressure;BME280_temperature;BME280_humidity;BME280_pressure;Samples;Min_cycle;Max_cycle;Signal;HPM_P1;HPM_P2
2022/08/18 00:00:32;;;;;;;12.93;11.60;;;22.90;99.90;;;;;;2603589;54;20162;31
2022/08/18 00:03:09;;;;;;;13.30;11.68;;;22.90;99.90;;;;;;2603416;54;20275;31
2022/08/18 00:06:04;;;;;;;;;;;22.90;99.90;;;;;;2603600;54;20473;31
2022/08/18 00:08:39;;;;;;;13.73;11.85;;;22.90;99.90;;;;;;2603045;54;19935;31
2022/08/18 00:11:14;;;;;;;18.02;12.95;;;22.80;99.90;;;;;;2603387;54;20738;31
2022/08/18 00:13:49;;;;;;;15.65;12.82;;;22.70;99.90;;;;;;2603590;54;20096;31
2022/08/18 00:16:27;;;;;;;15.60;13.93;;;22.70;99.90;;;;;;2603403;54;20101;31
2022/08/18 00:19:02;;;;;;;13.77;11.98;;;22.60;99.90;;;;;;2603270;54;20704;31
2022/08/18 00:21:43;;;;;;;13.60;12.30;;;22.60;99.90;;;;;;2701999;39;21094;31
2022/08/18 00:24:18;;;;;;;14.70;12.80;;;22.50;99.90;;;;;;2603515;54;20565;31
2022/08/18 00:26:53;;;;;;;15.30;12.05;;;22.50;99.90;;;;;;2701994;39;20485;31
2022/08/18 00:29:28;;;;;;;13.10;11.85;;;22.50;99.90;;;;;;2603523;54;20030;31
2022/08/18 00:32:17;;;;;;;18.58;13.25;;;22.40;99.90;;;;;;2603101;54;20030;31
2022/08/18 00:34:53;;;;;;;15.95;13.38;;;22.40;99.90;;;;;;2603314;54;20033;31
2022/08/18 00:37:27;;;;;;;14.23;12.35;;;22.30;99.90;;;;;;2603474;54;20871;31
2022/08/18 00:40:02;;;;;;;13.00;11.77;;;22.30;99.90;;;;;;2602624;54;20026;31
2022/08/18 00:42:35;;;;;;;;;;;22.20;99.90;;;;;;2621934;46;20882;31
2022/08/18 00:45:12;;;;;;;15.13;11.93;;;22.20;99.90;;;;;;2621986;46;20037;31
2022/08/18 00:47:49;;;;;;;20.08;11.88;;;22.10;99.90;;;;;;2621796;46;20902;31
2022/08/18 00:50:25;;;;;;;24.95;12.20;;;22.10;99.90;;;;;;2621723;47;20101;31
2022/08/18 00:53:01;;;;;;;19.25;11.90;;;22.10;99.90;;;;;;2603434;54;20880;31
2022/08/18 00:58:09;;;;;;;15.20;12.68;;;22.10;99.90;;;;;;2603211;54;19941;31
2022/08/18 01:00:44;;;;;;;16.30;13.40;;;22.10;99.90;;;;;;2603149;54;20022;31
2022/08/18 01:03:22;;;;;;;;;;;22.10;99.90;;;;;;2621732;47;20704;31
2022/08/18 01:05:59;;;;;;;16.90;13.23;;;22.10;99.90;;;;;;2603380;54;21439;31
2022/08/18 01:08:33;;;;;;;;;;;22.10;99.90;;;;;;2621681;47;20030;31
2022/08/18 01:11:09;;;;;;;16.40;13.63;;;22.00;99.90;;;;;;2621496;47;20715;31
2022/08/18 01:13:45;;;;;;;12.87;11.47;;;22.00;99.90;;;;;;2603178;54;20022;31
2022/08/18 01:21:59;;;;;;;13.57;12.03;;;22.00;99.90;;;;;;2603358;54;20050;31
2022/08/18 01:27:23;;;;;;;14.65;13.15;;;22.00;99.90;;;;;;2702605;39;20492;31
2022/08/18 01:29:57;;;;;;;16.00;13.30;;;21.90;99.90;;;;;;2603974;54;20057;31
2022/08/18 01:32:32;;;;;;;15.88;14.27;;;21.90;99.90;;;;;;2603964;54;20033;31
2022/08/18 01:35:10;;;;;;;16.10;14.55;;;21.90;99.90;;;;;;2613050;46;20843;31
2022/08/18 01:37:44;;;;;;;16.42;13.98;;;21.90;99.90;;;;;;2604217;54;20042;31
2022/08/18 01:40:22;;;;;;;15.15;13.80;;;21.80;99.90;;;;;;2604154;54;20607;31
2022/08/18 01:43:17;;;;;;;17.15;13.95;;;21.80;99.90;;;;;;2604100;54;20070;31
2022/08/18 01:45:49;;;;;;;15.57;13.50;;;21.80;99.90;;;;;;2603856;54;20027;31
2022/08/18 01:48:23;;;;;;;15.30;13.40;;;21.70;99.90;;;;;;2604047;54;20026;31
2022/08/18 01:50:58;;;;;;;15.13;13.48;;;21.70;99.90;;;;;;2604065;54;20889;31
2022/08/18 01:53:33;;;;;;;12.98;11.77;;;21.70;99.90;;;;;;2603933;54;20157;31
2022/08/18 01:56:10;;;;;;;13.60;12.30;;;21.60;99.90;;;;;;2604147;54;20877;31
2022/08/18 01:58:46;;;;;;;16.70;13.55;;;21.60;99.90;;;;;;2604240;54;20027;31
2022/08/18 02:01:21;;;;;;;17.73;14.93;;;21.60;99.90;;;;;;2603908;54;20030;31
2022/08/18 02:04:11;;;;;;;16.40;14.80;;;21.50;99.90;;;;;;2622089;46;20034;31
2022/08/18 02:07:08;;;;;;;14.30;12.90;;;21.50;99.90;;;;;;2603850;54;20119;31
2022/08/18 02:09:43;;;;;;;15.60;13.45;;;21.50;99.90;;;;;;2603999;54;20950;31
2022/08/18 02:12:20;;;;;;;;;;;21.40;99.90;;;;;;2622157;46;20026;31
2022/08/18 02:14:52;;;;;;;16.52;13.05;;;21.40;99.90;;;;;;2702639;39;20888;31
2022/08/18 02:17:26;;;;;;;17.00;13.73;;;21.40;99.90;;;;;;2603902;54;20113;31
2022/08/18 02:20:01;;;;;;;16.88;14.13;;;21.30;99.90;;;;;;2603832;54;20874;31
2022/08/18 02:22:37;;;;;;;18.05;15.95;;;21.30;99.90;;;;;;2603735;54;20081;31
2022/08/18 02:25:12;;;;;;;16.05;14.00;;;21.30;99.90;;;;;;2622621;46;20030;31
2022/08/18 02:27:50;;;;;;;16.00;14.40;;;21.30;99.90;;;;;;2603756;54;20048;31
2022/08/18 02:30:23;;;;;;;17.75;14.88;;;21.30;99.90;;;;;;2702528;39;20996;31
2022/08/18 02:32:58;;;;;;;15.85;14.25;;;21.20;99.90;;;;;;2621781;46;21881;31
2022/08/18 02:35:33;;;;;;;17.77;15.35;;;21.20;99.90;;;;;;2622104;46;20636;31
2022/08/18 02:38:08;;;;;;;16.10;14.17;;;21.20;99.90;;;;;;2603917;54;20542;31
2022/08/18 02:40:48;;;;;;;17.10;15.13;;;21.20;99.90;;;;;;2622080;46;20899;31
2022/08/18 02:43:25;;;;;;;15.43;13.93;;;21.20;99.90;;;;;;2622140;46;20072;31
2022/08/18 02:45:59;;;;;;;16.30;14.80;;;21.10;99.90;;;;;;2603725;54;20023;31
2022/08/18 02:48:35;;;;;;;16.35;14.85;;;21.10;99.90;;;;;;2603747;54;20045;31
2022/08/18 02:51:11;;;;;;;15.98;14.20;;;21.10;99.90;;;;;;2622518;46;20869;31
2022/08/18 02:53:44;;;;;;;;;;;21.10;99.90;;;;;;2604003;54;20050;31
2022/08/18 02:56:26;;;;;;;16.42;13.57;;;21.10;99.90;;;;;;2603865;54;19934;31
2022/08/18 02:59:18;;;;;;;17.95;15.70;;;21.00;99.90;;;;;;2603798;54;20026;31
2022/08/18 03:01:54;;;;;;;16.88;14.27;;;21.00;99.90;;;;;;2622376;46;20034;31
2022/08/18 03:04:32;;;;;;;;;;;21.00;99.90;;;;;;2603829;54;20031;31
2022/08/18 03:07:08;;;;;;;16.05;14.55;;;21.00;99.90;;;;;;2622253;46;19950;31
2022/08/18 03:09:42;;;;;;;20.23;16.13;;;20.90;99.90;;;;;;2622118;46;20853;31
2022/08/18 03:12:17;;;;;;;16.77;15.13;;;20.90;99.90;;;;;;2622394;46;20313;31
2022/08/18 03:14:54;;;;;;;17.67;15.33;;;20.80;99.90;;;;;;2603417;54;20039;31
2022/08/18 03:17:30;;;;;;;20.30;15.65;;;20.80;99.90;;;;;;2603802;54;20395;31
2022/08/18 03:20:06;;;;;;;17.55;15.75;;;20.80;99.90;;;;;;2603599;54;20047;31
2022/08/18 03:22:42;;;;;;;20.70;16.30;;;20.80;99.90;;;;;;2603603;54;20121;31
2022/08/18 03:25:16;;;;;;;17.50;14.82;;;20.80;99.90;;;;;;2603985;54;20022;31
2022/08/18 03:27:51;;;;;;;22.50;17.77;;;20.80;99.90;;;;;;2603838;54;20833;31
2022/08/18 03:30:28;;;;;;;16.85;15.00;;;20.70;99.90;;;;;;2603706;54;20829;31
2022/08/18 03:33:03;;;;;;;18.55;15.88;;;20.70;99.90;;;;;;2702223;39;21070;31
2022/08/18 03:35:37;;;;;;;17.10;15.30;;;20.70;99.90;;;;;;2603732;54;20022;31
2022/08/18 03:38:12;;;;;;;18.63;13.97;;;20.70;99.90;;;;;;2622474;46;19934;31
2022/08/18 03:40:51;;;;;;;17.65;15.85;;;20.70;99.90;;;;;;2622211;46;20382;31
2022/08/18 03:43:26;;;;;;;16.92;15.32;;;20.70;99.90;;;;;;2603828;54;20089;31
2022/08/18 03:46:23;;;;;;;17.60;14.67;;;20.70;99.90;;;;;;2603403;54;20148;31
2022/08/18 03:48:59;;;;;;;17.45;15.63;;;20.70;99.90;;;;;;2603671;54;20900;31
2022/08/18 03:51:33;;;;;;;22.20;17.50;;;20.70;99.90;;;;;;2603642;54;20026;31
2022/08/18 03:54:08;;;;;;;18.05;16.15;;;20.60;99.90;;;;;;2603586;54;20085;31
2022/08/18 03:56:43;;;;;;;16.35;14.75;;;20.60;99.90;;;;;;2621851;46;20809;31
2022/08/18 03:59:19;;;;;;;18.20;16.45;;;20.60;99.90;;;;;;2603200;54;20026;31
2022/08/18 04:01:57;;;;;;;20.40;18.30;;;20.70;99.90;;;;;;2603345;54;20109;31
2022/08/18 04:04:33;;;;;;;17.80;16.10;;;20.60;99.90;;;;;;2603570;54;20030;31
2022/08/18 04:07:13;;;;;;;18.97;16.97;;;20.50;99.90;;;;;;2603038;54;20913;31
2022/08/18 04:09:47;;;;;;;18.20;16.40;;;20.60;99.90;;;;;;2621596;46;21101;31
2022/08/18 04:12:22;;;;;;;17.53;15.80;;;20.70;99.90;;;;;;2622148;46;20026;31
2022/08/18 04:14:57;;;;;;;17.92;16.15;;;20.70;99.90;;;;;;2603641;54;20026;31
2022/08/18 04:17:35;;;;;;;20.10;17.15;;;20.70;99.90;;;;;;2621788;46;20026;31
2022/08/18 04:20:32;;;;;;;21.15;17.73;;;20.80;99.90;;;;;;2603292;54;20863;31
2022/08/18 04:23:08;;;;;;;18.52;16.00;;;20.80;99.90;;;;;;2603628;54;20026;31
2022/08/18 04:25:43;;;;;;;19.87;17.73;;;20.80;99.90;;;;;;2603549;54;20141;31
2022/08/18 04:28:19;;;;;;;19.43;17.10;;;20.90;99.90;;;;;;2621760;46;20921;31
2022/08/18 04:30:53;;;;;;;;;;;21.00;99.90;;;;;;2603551;54;20062;31
2022/08/18 04:33:31;;;;;;;21.00;18.25;;;21.00;99.90;;;;;;2701565;39;21220;31
2022/08/18 04:36:10;;;;;;;18.90;17.00;;;21.00;99.90;;;;;;2603446;54;20121;31
2022/08/18 04:38:51;;;;;;;19.38;17.40;;;21.10;99.90;;;;;;2621714;46;19930;31
2022/08/18 04:41:30;;;;;;;25.35;19.75;;;21.10;99.90;;;;;;2621904;46;20042;31
2022/08/18 04:44:04;;;;;;;21.48;19.17;;;21.10;99.90;;;;;;2701926;39;21114;31
2022/08/18 04:46:39;;;;;;;19.35;17.35;;;21.10;99.90;;;;;;2603303;54;20043;31
2022/08/18 04:49:16;;;;;;;20.67;16.83;;;21.20;99.90;;;;;;2603411;54;20903;31
2022/08/18 04:55:02;;;;;;;19.70;17.65;;;21.50;99.90;;;;;;2603229;54;20034;31
2022/08/18 04:57:37;;;;;;;22.08;19.73;;;21.60;99.90;;;;;;2603719;54;20030;31
2022/08/18 05:00:14;;;;;;;21.00;18.20;;;21.70;99.90;;;;;;2702661;39;20980;31
2022/08/18 05:02:53;;;;;;;20.67;18.57;;;21.70;99.90;;;;;;2622211;46;20273;31
2022/08/18 05:05:30;;;;;;;20.40;18.15;;;21.90;99.90;;;;;;2604194;54;20065;31
2022/08/18 05:08:02;;;;;;;19.63;17.67;;;22.00;99.90;;;;;;2702968;39;22214;31
2022/08/18 05:10:40;;;;;;;21.67;19.57;;;22.10;99.90;;;;;;2604190;54;20053;31
2022/08/18 05:13:17;;;;;;;21.53;19.33;;;22.40;99.90;;;;;;2604259;54;20033;31
2022/08/18 05:15:55;;;;;;;23.63;19.00;;;22.50;99.90;;;;;;2622893;46;20030;31
2022/08/18 05:18:46;;;;;;;21.80;19.25;;;22.60;99.90;;;;;;2603892;54;19938;31
2022/08/18 05:21:24;;;;;;;23.35;19.33;;;22.80;99.90;;;;;;2604069;54;20053;31
2022/08/18 05:23:59;;;;;;;19.67;17.67;;;22.90;99.90;;;;;;2622095;46;20110;31
2022/08/18 05:26:35;;;;;;;22.30;20.08;;;23.10;99.90;;;;;;2604205;54;20026;31
2022/08/18 05:29:10;;;;;;;22.25;19.95;;;23.30;99.90;;;;;;2604170;54;20027;31
2022/08/18 05:31:53;;;;;;;24.45;19.50;;;23.50;99.90;;;;;;2603850;54;19950;31
2022/08/18 05:34:27;;;;;;;21.00;18.85;;;23.60;99.90;;;;;;2603842;54;20748;31
2022/08/18 05:37:24;;;;;;;25.48;20.48;;;23.80;99.90;;;;;;2603826;54;20888;31
2022/08/18 05:39:59;;;;;;;21.45;18.50;;;24.00;99.90;;;;;;2721368;39;21042;31
2022/08/18 05:42:38;;;;;;;20.50;17.70;;;24.20;99.90;;;;;;2621984;46;20030;31
2022/08/18 05:45:14;;;;;;;23.87;18.67;;;24.50;99.90;;;;;;2604073;54;20030;31
2022/08/18 05:47:49;;;;;;;23.83;18.60;;;24.60;99.90;;;;;;2603661;54;20027;31
2022/08/18 05:50:26;;;;;;;23.10;20.70;;;24.70;99.90;;;;;;2604051;54;20037;31
2022/08/18 05:53:09;;;;;;;25.83;22.23;;;24.90;99.90;;;;;;2603910;54;20849;31
2022/08/18 05:58:40;;;;;;;24.97;20.70;;;25.30;99.90;;;;;;2622064;46;20030;31
2022/08/18 06:01:18;;;;;;;23.27;20.73;;;25.40;99.90;;;;;;2702508;39;21098;31
2022/08/18 06:03:56;;;;;;;28.05;23.50;;;25.60;99.90;;;;;;2603711;54;20049;31
2022/08/18 06:06:32;;;;;;;24.23;21.73;;;25.70;99.90;;;;;;2603902;54;20046;31
2022/08/18 06:09:15;;;;;;;23.75;21.30;;;25.70;99.90;;;;;;2603322;54;20085;31
2022/08/18 06:11:49;;;;;;;23.77;21.08;;;25.80;99.90;;;;;;2720640;39;20467;31
2022/08/18 06:14:25;;;;;;;27.55;21.90;;;25.80;99.90;;;;;;2604016;54;20096;31
2022/08/18 06:17:04;;;;;;;23.37;20.87;;;25.90;99.90;;;;;;2603936;54;20052;31
2022/08/18 06:19:44;;;;;;;23.40;20.40;;;25.90;99.90;;;;;;2603691;54;20046;31
2022/08/18 06:22:25;;;;;;;25.52;21.90;;;25.90;99.90;;;;;;2702462;39;21213;31
2022/08/18 06:25:12;;;;;;;25.30;21.65;;;26.10;99.90;;;;;;2603965;54;20014;31
2022/08/18 06:27:54;;;;;;;23.33;20.98;;;26.30;99.90;;;;;;2603970;54;20929;31
2022/08/18 06:30:32;;;;;;;25.20;20.52;;;26.50;99.90;;;;;;2603726;54;20143;31
2022/08/18 06:33:12;;;;;;;22.95;20.55;;;26.80;99.90;;;;;;2603878;54;20157;31
2022/08/18 06:35:50;;;;;;;34.07;22.63;;;26.90;99.90;;;;;;2602900;54;20030;31
2022/08/18 06:38:41;;;;;;;23.20;20.70;;;27.00;99.90;;;;;;2603885;54;20153;31
2022/08/18 06:41:25;;;;;;;22.63;20.23;;;27.20;99.90;;;;;;2603442;54;20698;31
2022/08/18 06:44:22;;;;;;;22.30;20.10;;;27.40;99.90;;;;;;2720955;39;20476;31
2022/08/18 06:47:03;;;;;;;22.30;20.23;;;27.60;99.90;;;;;;2702235;39;20490;31
2022/08/18 06:49:41;;;;;;;25.80;22.40;;;27.80;99.90;;;;;;2603860;54;20216;31
2022/08/18 06:52:28;;;;;;;21.17;19.07;;;27.90;99.90;;;;;;2602856;54;20038;31
2022/08/18 06:55:04;;;;;;;23.60;20.10;;;28.00;99.90;;;;;;2604086;54;21055;31
2022/08/18 06:57:54;;;;;;;23.35;20.73;;;28.20;99.90;;;;;;2621892;46;20120;31
2022/08/18 07:00:33;;;;;;;24.75;20.75;;;28.40;99.90;;;;;;2603986;54;20032;31
2022/08/18 07:03:13;;;;;;;23.70;21.27;;;28.60;99.90;;;;;;2603628;54;20038;31
2022/08/18 07:06:01;;;;;;;28.48;25.42;;;28.80;99.90;;;;;;2603712;54;20031;31
2022/08/18 07:08:37;;;;;;;28.38;24.40;;;28.90;99.90;;;;;;2603607;54;20038;31
2022/08/18 07:11:20;;;;;;;24.75;22.20;;;29.00;99.90;;;;;;2603585;54;20132;31
2022/08/18 07:14:01;;;;;;;24.52;22.15;;;29.20;99.90;;;;;;2603790;54;20916;31
2022/08/18 07:16:50;;;;;;;23.80;21.50;;;29.40;99.90;;;;;;2603588;54;20117;31
2022/08/18 07:19:34;;;;;;;24.10;21.20;;;29.50;99.90;;;;;;2603314;54;20144;31
2022/08/18 07:22:10;;;;;;;21.37;19.47;;;29.60;99.90;;;;;;2603606;54;20616;31
2022/08/18 07:24:45;;;;;;;27.05;24.05;;;29.80;99.90;;;;;;2603763;54;21124;31
2022/08/18 07:27:21;;;;;;;25.75;22.30;;;29.90;99.90;;;;;;2603606;54;20049;31
2022/08/18 07:30:08;;;;;;;22.40;19.95;;;30.00;99.90;;;;;;2702066;39;20686;31
2022/08/18 07:32:51;;;;;;;19.20;17.20;;;30.20;99.90;;;;;;2603497;54;20029;31
2022/08/18 07:35:31;;;;;;;23.33;19.50;;;30.50;99.90;;;;;;2603650;54;20030;31
2022/08/18 07:38:16;;;;;;;19.00;17.02;;;30.70;99.90;;;;;;2603703;54;20027;31
2022/08/18 07:41:15;;;;;;;21.40;19.00;;;30.90;99.90;;;;;;2603458;54;20052;31
2022/08/18 07:43:59;;;;;;;21.10;19.10;;;30.90;99.90;;;;;;2603754;54;20111;31
2022/08/18 07:46:39;;;;;;;21.00;18.77;;;31.00;99.90;;;;;;2622229;46;20057;31
2022/08/18 07:49:15;;;;;;;20.08;18.10;;;31.10;99.90;;;;;;2702371;39;22226;31
2022/08/18 07:51:58;;;;;;;22.25;17.50;;;31.10;99.90;;;;;;2622089;46;20030;31
2022/08/18 07:54:50;;;;;;;22.45;18.40;;;31.20;99.90;;;;;;2603482;54;20877;31
2022/08/18 07:57:32;;;;;;;18.63;16.45;;;31.30;99.90;;;;;;2603539;54;20023;31
2022/08/18 08:00:21;;;;;;;18.13;16.23;;;31.50;99.90;;;;;;2603696;54;20736;31
2022/08/18 08:03:26;;;;;;;19.75;16.20;;;31.60;99.90;;;;;;2603547;54;20812;31
2022/08/18 08:06:05;;;;;;;21.93;17.50;;;31.70;99.90;;;;;;2622067;46;20033;31
2022/08/18 08:08:42;;;;;;;25.67;19.80;;;31.90;99.90;;;;;;2603559;54;20048;31
2022/08/18 08:11:25;;;;;;;20.67;18.50;;;32.10;99.90;;;;;;2701962;39;20488;31
2022/08/18 08:14:12;;;;;;;21.10;16.10;;;32.30;99.90;;;;;;2603331;54;20880;31
2022/08/18 08:16:50;;;;;;;21.73;17.60;;;32.50;99.90;;;;;;2603630;54;20089;31
2022/08/18 08:19:52;;;;;;;18.85;16.88;;;32.60;99.90;;;;;;2621650;46;21177;31
2022/08/18 08:22:38;;;;;;;18.92;16.92;;;32.70;99.90;;;;;;2603361;54;20033;31
2022/08/18 08:25:19;;;;;;;16.23;14.63;;;32.90;99.90;;;;;;2603301;54;20089;31
2022/08/18 08:28:22;;;;;;;17.02;14.88;;;33.00;99.90;;;;;;2702055;39;20454;31
2022/08/18 08:30:56;;;;;;;21.80;15.50;;;33.00;99.90;;;;;;2603561;54;20845;31
2022/08/18 08:33:53;;;;;;;18.77;16.30;;;33.10;99.90;;;;;;2603228;54;24065;31
2022/08/18 08:36:32;;;;;;;16.00;14.50;;;33.10;99.90;;;;;;2603154;54;20053;31
2022/08/18 08:39:09;;;;;;;15.52;13.93;;;33.20;99.90;;;;;;2622138;46;20783;31
2022/08/18 08:41:48;;;;;;;17.08;15.32;;;33.40;99.90;;;;;;2603333;54;19942;31
2022/08/18 08:44:24;;;;;;;17.20;15.32;;;33.40;99.90;;;;;;2603552;54;20022;31
2022/08/18 08:47:04;;;;;;;22.20;15.80;;;33.40;99.90;;;;;;2602488;54;20963;31
2022/08/18 08:49:44;;;;;;;17.75;14.68;;;33.50;99.90;;;;;;2603362;54;20608;31
2022/08/18 08:52:32;;;;;;;19.03;14.47;;;33.70;99.90;;;;;;2603619;54;20050;31
2022/08/18 08:55:08;;;;;;;21.88;15.35;;;33.80;99.90;;;;;;2702172;39;22454;31
2022/08/18 08:57:47;;;;;;;15.40;13.77;;;34.00;99.90;;;;;;2603225;54;20027;31
2022/08/18 09:00:22;;;;;;;15.93;14.32;;;34.00;99.90;;;;;;2621905;47;20023;31
2022/08/18 09:03:04;;;;;;;16.63;14.00;;;34.20;99.90;;;;;;2621961;47;20026;31
2022/08/18 09:05:41;;;;;;;16.38;14.73;;;34.30;99.90;;;;;;2621676;47;20089;31
2022/08/18 09:08:46;;;;;;;19.42;14.50;;;34.50;99.90;;;;;;2603122;54;20165;31
2022/08/18 09:12:10;;;;;;;14.70;13.30;;;34.50;99.90;;;;;;2701542;39;20481;31
2022/08/18 09:15:10;;;;;;;17.23;14.00;;;34.40;99.90;;;;;;2603086;54;20305;31
2022/08/18 09:18:14;;;;;;;14.25;12.85;;;34.40;99.90;;;;;;2606102;47;20090;31
2022/08/18 09:21:00;;;;;;;15.15;13.60;;;34.50;99.90;;;;;;2621544;47;20037;31
2022/08/18 09:23:37;;;;;;;16.85;13.57;;;34.50;99.90;;;;;;2603161;54;20057;31
2022/08/18 09:26:45;;;;;;;16.40;14.73;;;34.40;99.90;;;;;;2603184;54;20027;31
2022/08/18 09:29:23;;;;;;;15.75;12.60;;;34.40;99.90;;;;;;2603201;54;20149;31
2022/08/18 09:32:28;;;;;;;14.77;12.48;;;34.50;99.90;;;;;;2603201;54;20037;31
2022/08/18 09:35:12;;;;;;;14.07;12.63;;;34.50;99.90;;;;;;2602906;54;20038;31
2022/08/18 09:41:30;;;;;;;14.43;12.18;;;34.50;99.90;;;;;;2602988;54;20102;31
2022/08/18 09:43:40;;;;;;;13.10;11.73;;;34.70;99.90;;;;;;2603479;54;20877;31
2022/08/18 09:46:15;;;;;;;13.20;11.82;;;34.60;99.90;;;;;;2604040;54;20026;31
2022/08/18 09:48:51;;;;;;;14.55;12.55;;;34.50;99.90;;;;;;2603936;54;20803;31
2022/08/18 09:51:36;;;;;;;15.50;12.80;;;34.60;99.90;;;;;;2604082;54;20109;31
2022/08/18 09:54:16;;;;;;;13.98;12.75;;;34.60;99.90;;;;;;2603721;54;20050;31
2022/08/18 09:57:18;;;;;;;13.55;12.25;;;34.60;99.90;;;;;;2622224;46;20030;31
2022/08/18 10:00:13;;;;;;;15.32;12.48;;;34.50;99.90;;;;;;2773738;31;20639;31
2022/08/18 10:03:22;;;;;;;13.20;11.43;;;34.60;99.90;;;;;;2604045;54;20860;31
2022/08/18 10:06:23;;;;;;;18.15;11.50;;;34.70;99.90;;;;;;2622149;46;19938;31
2022/08/18 10:09:17;;;;;;;13.90;12.30;;;34.90;99.90;;;;;;2603750;54;20938;31
2022/08/18 10:12:35;;;;;;;15.20;9.35;;;35.10;99.70;;;;;;2604114;54;20058;31
2022/08/18 10:15:40;;;;;;;10.10;9.10;;;35.00;98.60;;;;;;2603720;54;20062;31
2022/08/18 10:18:28;;;;;;;11.88;10.77;;;34.90;98.10;;;;;;2702166;39;20556;31
2022/08/18 10:21:10;;;;;;;12.75;10.13;;;34.80;98.80;;;;;;2622302;46;20026;31
2022/08/18 10:23:48;;;;;;;10.35;9.25;;;34.80;98.20;;;;;;2603726;54;20822;31
2022/08/18 10:27:36;;;;;;;10.93;9.63;;;34.90;98.40;;;;;;2604555;46;20771;31
2022/08/18 10:30:11;;;;;;;13.82;12.07;;;34.80;98.80;;;;;;2702459;39;20568;31
2022/08/18 10:32:50;;;;;;;15.02;11.18;;;34.90;98.70;;;;;;2603601;54;20042;31
2022/08/18 10:36:00;;;;;;;13.15;11.00;;;34.90;98.10;;;;;;2603722;54;20022;31
2022/08/18 10:38:52;;;;;;;13.70;11.38;;;34.80;98.30;;;;;;2603760;54;20033;31
2022/08/18 10:41:30;;;;;;;14.45;11.30;;;34.90;98.40;;;;;;2603905;54;20034;31
2022/08/18 10:44:05;;;;;;;14.35;11.13;;;35.00;98.40;;;;;;2603715;54;20874;31
2022/08/18 10:47:00;;;;;;;12.50;10.73;;;34.90;98.00;;;;;;2603958;54;20089;31
2022/08/18 10:49:38;;;;;;;10.90;9.80;;;34.80;97.70;;;;;;2603910;54;20026;31
2022/08/18 10:52:35;;;;;;;11.70;9.90;;;34.80;97.30;;;;;;2774063;31;21359;31
2022/08/18 10:55:43;;;;;;;11.80;10.30;;;34.90;97.30;;;;;;2603679;54;20027;31
2022/08/18 10:58:56;;;;;;;12.48;10.05;;;34.80;97.70;;;;;;2604050;54;20037;31
2022/08/18 11:01:49;;;;;;;12.70;10.53;;;34.80;97.20;;;;;;2603870;54;20049;31
2022/08/18 11:04:29;;;;;;;11.30;9.63;;;34.70;97.60;;;;;;2701933;39;20564;31
2022/08/18 11:07:14;;;;;;;12.20;10.77;;;34.60;97.20;;;;;;2603663;54;20026;31
2022/08/18 11:09:52;;;;;;;11.95;9.88;;;34.40;96.80;;;;;;2603932;54;20018;31
2022/08/18 11:13:20;;;;;;;14.00;10.02;;;34.40;97.40;;;;;;2603684;54;20022;31
2022/08/18 11:16:02;;;;;;;11.35;10.23;;;34.40;97.70;;;;;;2603500;54;20576;31
2022/08/18 11:18:45;;;;;;;13.00;9.90;;;34.50;97.20;;;;;;2702023;39;20477;31
2022/08/18 11:21:33;;;;;;;12.45;10.30;;;34.60;96.90;;;;;;2702229;39;21062;31
2022/08/18 11:26:53;;;;;;;9.73;8.65;;;34.50;95.90;;;;;;2622512;46;20026;31
2022/08/18 11:29:31;;;;;;;9.48;8.32;;;34.50;96.30;;;;;;2622150;46;20026;31
2022/08/18 11:32:10;;;;;;;10.30;9.30;;;34.40;95.50;;;;;;2603507;54;20038;31
2022/08/18 11:34:47;;;;;;;11.73;8.75;;;34.30;95.50;;;;;;2603624;54;20819;31
2022/08/18 11:37:29;;;;;;;13.85;9.05;;;34.20;95.50;;;;;;2603591;54;20819;31
2022/08/18 11:40:37;;;;;;;9.70;8.57;;;34.10;95.60;;;;;;2603584;54;20138;31
2022/08/18 11:43:35;;;;;;;9.55;8.30;;;34.10;95.60;;;;;;2606047;46;21896;31
2022/08/18 11:46:17;;;;;;;12.75;8.95;;;34.10;95.10;;;;;;2603460;54;20553;31
2022/08/18 11:49:02;;;;;;;11.20;9.07;;;34.10;95.10;;;;;;2603674;54;20573;31
2022/08/18 11:51:40;;;;;;;10.05;9.15;;;34.10;95.90;;;;;;2603411;54;20054;31
2022/08/18 11:54:24;;;;;;;11.52;8.98;;;34.00;95.50;;;;;;2603477;54;20030;31
2022/08/18 11:57:09;;;;;;;9.60;8.45;;;34.00;94.90;;;;;;2603812;54;20022;31
2022/08/18 11:59:49;;;;;;;10.70;8.15;;;34.00;95.10;;;;;;2603323;54;20033;31
2022/08/18 12:02:36;;;;;;;8.70;7.88;;;34.00;94.90;;;;;;2622106;46;20026;31
2022/08/18 12:05:12;;;;;;;10.35;8.63;;;34.00;94.70;;;;;;2701936;39;20497;31
2022/08/18 12:07:50;;;;;;;9.60;8.60;;;34.00;94.50;;;;;;2603515;54;20026;31
2022/08/18 12:10:32;;;;;;;9.48;8.35;;;33.90;94.60;;;;;;2608380;46;21208;31
2022/08/18 12:13:09;;;;;;;8.00;7.30;;;34.00;94.30;;;;;;2603346;54;20033;31
2022/08/18 12:15:48;;;;;;;8.05;7.32;;;34.00;93.80;;;;;;2603250;54;20026;31
2022/08/18 12:18:22;;;;;;;9.77;8.60;;;34.00;93.50;;;;;;2702224;39;22204;31
2022/08/18 12:21:18;;;;;;;9.90;7.57;;;33.90;93.90;;;;;;2603413;54;20860;31
2022/08/18 12:23:55;;;;;;;8.63;7.75;;;33.80;93.70;;;;;;2603367;54;20026;31
2022/08/18 12:26:34;;;;;;;9.73;7.95;;;33.80;93.80;;;;;;2603315;54;20034;31
2022/08/18 12:29:18;;;;;;;9.50;8.70;;;33.80;93.90;;;;;;2603451;54;20097;31
2022/08/18 12:31:57;;;;;;;9.80;8.80;;;33.90;94.20;;;;;;2603024;54;20959;31
2022/08/18 12:34:32;;;;;;;10.50;8.43;;;33.80;93.30;;;;;;2603372;54;24070;31
2022/08/18 12:37:10;;;;;;;9.50;8.57;;;33.80;93.40;;;;;;2603208;54;20251;31
2022/08/18 12:40:07;;;;;;;9.35;8.02;;;33.70;93.50;;;;;;2603328;54;20082;31
2022/08/18 12:42:44;;;;;;;10.82;8.30;;;33.70;92.50;;;;;;2702084;39;20561;31
2022/08/18 12:45:21;;;;;;;8.77;7.75;;;33.60;93.30;;;;;;2621787;46;20037;31
2022/08/18 12:48:01;;;;;;;10.15;9.23;;;33.60;93.20;;;;;;2603362;54;20022;31
2022/08/18 12:50:37;;;;;;;10.70;9.70;;;33.70;93.70;;;;;;2603517;54;20046;31
2022/08/18 12:53:36;;;;;;;10.70;9.63;;;33.70;93.80;;;;;;2603198;54;20804;31
2022/08/18 12:56:29;;;;;;;11.45;10.40;;;33.70;94.30;;;;;;2702043;39;22229;31
2022/08/18 12:59:06;;;;;;;10.70;9.70;;;33.80;94.00;;;;;;2603406;54;20030;31
2022/08/18 13:01:41;;;;;;;11.73;10.15;;;33.80;94.00;;;;;;2603652;54;20030;31
2022/08/18 13:04:19;;;;;;;10.73;9.60;;;33.80;92.60;;;;;;2603289;54;20035;31
2022/08/18 13:07:00;;;;;;;10.25;9.30;;;33.70;92.90;;;;;;2603323;54;20134;31
2022/08/18 13:09:40;;;;;;;11.33;10.23;;;33.70;93.10;;;;;;2603103;54;20026;31
2022/08/18 13:12:27;;;;;;;11.35;10.20;;;33.70;93.10;;;;;;2603415;54;20254;31
2022/08/18 13:15:01;;;;;;;11.30;10.30;;;33.70;93.40;;;;;;2603046;54;21632;31
2022/08/18 13:17:39;;;;;;;10.75;9.75;;;33.70;93.10;;;;;;2603528;54;20600;31
2022/08/18 13:20:20;;;;;;;9.77;8.87;;;33.60;92.80;;;;;;2622695;46;20572;31
2022/08/18 13:22:54;;;;;;;11.63;10.63;;;33.50;92.20;;;;;;2603998;54;20107;31
2022/08/18 13:25:29;;;;;;;13.23;11.75;;;33.60;93.30;;;;;;2604065;54;20848;31
2022/08/18 13:28:07;;;;;;;13.25;11.60;;;33.60;93.80;;;;;;2603852;54;20081;31
2022/08/18 13:30:44;;;;;;;12.70;11.40;;;33.60;93.50;;;;;;2603824;54;20030;31
2022/08/18 13:33:20;;;;;;;12.40;11.32;;;33.50;94.00;;;;;;2603956;54;20082;31
2022/08/18 13:36:20;;;;;;;12.68;10.93;;;33.50;94.00;;;;;;2603984;54;20031;31
2022/08/18 13:38:54;;;;;;;11.50;10.60;;;33.50;93.70;;;;;;2603971;54;20023;31
2022/08/18 13:41:29;;;;;;;12.00;10.90;;;33.40;93.60;;;;;;2702636;39;20481;31
2022/08/18 13:44:06;;;;;;;12.93;11.73;;;33.40;93.50;;;;;;2622108;46;20038;31
2022/08/18 13:46:47;;;;;;;12.33;11.13;;;33.30;94.10;;;;;;2603940;54;20113;31
2022/08/18 13:49:22;;;;;;;11.55;10.55;;;33.30;93.60;;;;;;2603841;54;20183;31
2022/08/18 13:52:07;;;;;;;11.02;10.02;;;33.30;93.40;;;;;;2604052;54;20033;31
2022/08/18 13:55:03;;;;;;;13.93;11.38;;;33.30;93.50;;;;;;2603922;54;20026;31
2022/08/18 13:57:47;;;;;;;10.60;9.70;;;33.30;93.60;;;;;;2604128;54;20027;31
2022/08/18 14:00:28;;;;;;;13.13;11.90;;;33.30;94.00;;;;;;2603946;54;20908;31
2022/08/18 14:03:05;;;;;;;10.98;10.07;;;33.30;93.40;;;;;;2603934;54;20919;31
2022/08/18 14:05:40;;;;;;;13.50;10.10;;;33.20;93.90;;;;;;2622503;46;20895;31
2022/08/18 14:08:28;;;;;;;10.55;9.65;;;33.20;93.80;;;;;;2621951;46;25064;31
2022/08/18 14:11:04;;;;;;;9.95;9.00;;;33.20;93.70;;;;;;2603679;54;20030;31
2022/08/18 14:13:40;;;;;;;9.93;9.02;;;33.20;93.10;;;;;;2603935;54;20026;31
2022/08/18 14:16:19;;;;;;;9.88;8.35;;;33.20;93.00;;;;;;2603956;54;20026;31
2022/08/18 14:27:29;;;;;;;9.70;8.73;;;33.20;93.80;;;;;;2622502;46;20249;31